createdAt,value
2019-02-23T00:02:50.711Z,100183.45
2019-02-23T00:06:55.618Z,100178.49
2019-02-23T00:11:00.522Z,100188.23
2019-02-23T00:15:06.723Z,100191.44
2019-02-23T00:19:11.630Z,100194.68
2019-02-23T00:23:16.530Z,100204.47
2019-02-23T00:27:21.435Z,100202.63
2019-02-23T00:31:26.342Z,100204.44
2019-02-23T00:35:31.238Z,100196.64
2019-02-23T00:39:36.141Z,100202.50
2019-02-23T00:43:41.049Z,100213.22
2019-02-23T00:47:45.950Z,100213.22
2019-02-23T00:51:51.915Z,100203.25
2019-02-23T00:55:56.928Z,100202.33
2019-02-23T01:00:01.834Z,100195.84
2019-02-23T01:04:08.332Z,100191.48
2019-02-23T01:08:13.242Z,100200.48
2019-02-23T01:12:18.146Z,100202.06
2019-02-23T01:16:23.035Z,100199.93
2019-02-23T01:20:27.992Z,100213.08
2019-02-23T01:24:32.862Z,100205.05
2019-02-23T01:28:37.767Z,100203.80
2019-02-23T01:32:42.676Z,100195.38
2019-02-23T01:36:47.577Z,100194.80
2019-02-23T01:40:52.477Z,100191.79
2019-02-23T01:44:58.359Z,100201.05
2019-02-23T01:49:03.254Z,100199.86
2019-02-23T01:53:08.168Z,100195.13
2019-02-23T01:57:13.061Z,100208.03
2019-02-23T02:01:17.972Z,100205.06
2019-02-23T02:05:22.872Z,100204.77
2019-02-23T02:09:27.774Z,100202.63
2019-02-23T02:13:32.672Z,100196.67
2019-02-23T02:17:37.718Z,100191.64
2019-02-23T02:21:42.621Z,100197.41
2019-02-23T02:25:47.544Z,100194.34
2019-02-23T02:29:52.452Z,100195.66
2019-02-23T02:34:06.436Z,100187.83
2019-02-23T02:38:12.306Z,100194.92
2019-02-23T02:42:17.209Z,100184.38
2019-02-23T02:46:22.112Z,100188.27
2019-02-23T02:50:27.020Z,100195.76
2019-02-23T02:54:31.924Z,100185.67
2019-02-23T02:58:36.819Z,100185.42
2019-02-23T03:02:41.749Z,100199.03
2019-02-23T03:06:46.697Z,100191.44
2019-02-23T03:10:51.570Z,100187.75
2019-02-23T03:14:56.487Z,100174.09
2019-02-23T03:19:01.410Z,100161.35
2019-02-23T03:23:06.305Z,100157.19
2019-02-23T03:27:11.217Z,100170.38
2019-02-23T03:31:16.133Z,100152.09
2019-02-23T03:35:21.401Z,100153.84
2019-02-23T03:39:26.322Z,100149.95
2019-02-23T03:43:31.369Z,100139.27
2019-02-23T03:47:36.271Z,100125.05
2019-02-23T03:51:42.157Z,100124.87
2019-02-23T03:55:47.573Z,100132.95
2019-02-23T03:59:52.437Z,100145.73
2019-02-23T04:03:57.344Z,100152.20
2019-02-23T04:08:02.244Z,100144.78
2019-02-23T04:12:07.165Z,100141.73
2019-02-23T04:16:12.096Z,100130.17
2019-02-23T04:20:16.998Z,100133.86
2019-02-23T04:24:21.920Z,100126.16
2019-02-23T04:28:26.835Z,100136.73
2019-02-23T04:32:31.748Z,100142.00
2019-02-23T04:36:36.652Z,100150.44
2019-02-23T04:40:41.572Z,100145.20
2019-02-23T04:44:46.510Z,100152.48
2019-02-23T04:48:51.430Z,100154.02
2019-02-23T04:52:56.336Z,100140.81
2019-02-23T04:57:01.248Z,100144.80
2019-02-23T05:01:06.170Z,100139.11
2019-02-23T05:05:11.207Z,100141.28
2019-02-23T05:09:16.135Z,100141.28
2019-02-23T05:13:21.048Z,100143.50
2019-02-23T05:17:25.952Z,100147.28
2019-02-23T05:21:30.870Z,100154.75
2019-02-23T05:25:35.761Z,100154.69
2019-02-23T05:29:40.673Z,100172.87
2019-02-23T05:33:45.593Z,100172.97
2019-02-23T05:37:50.501Z,100172.11
2019-02-23T05:41:55.415Z,100170.75
2019-02-23T05:46:00.315Z,100170.29
2019-02-23T05:50:08.009Z,100171.52
2019-02-23T05:54:12.926Z,100169.66
2019-02-23T05:58:17.856Z,100169.64
2019-02-23T06:02:22.769Z,100176.20
2019-02-23T06:06:27.666Z,100171.55
2019-02-23T06:10:32.579Z,100169.58
2019-02-23T06:14:37.502Z,100168.52
2019-02-23T06:18:42.405Z,100168.28
2019-02-23T06:22:47.323Z,100167.14
2019-02-23T06:26:52.225Z,100174.77
2019-02-23T06:30:57.129Z,100174.31
2019-02-23T06:35:02.054Z,100175.03
2019-02-23T06:39:06.965Z,100179.45
2019-02-23T06:43:11.872Z,100200.39
2019-02-23T06:47:16.781Z,100208.88
2019-02-23T06:51:21.682Z,100219.02
2019-02-23T06:55:26.591Z,100228.73
2019-02-23T06:59:31.538Z,100216.37
2019-02-23T07:03:36.449Z,100236.64
2019-02-23T07:07:41.373Z,100252.27
2019-02-23T07:11:46.270Z,100251.72
2019-02-23T07:15:51.183Z,100257.84
2019-02-23T07:19:56.103Z,100270.70
2019-02-23T07:24:01.020Z,100269.69
2019-02-23T07:28:05.941Z,100283.79
2019-02-23T07:32:10.839Z,100291.19
2019-02-23T07:36:15.749Z,100281.05
2019-02-23T07:40:20.659Z,100279.64
2019-02-23T07:44:26.542Z,100271.17
2019-02-23T07:48:31.451Z,100279.75
2019-02-23T07:52:36.354Z,100274.58
2019-02-23T07:56:41.265Z,100265.95
2019-02-23T08:00:46.188Z,100267.84
2019-02-23T08:04:51.103Z,100259.77
2019-02-23T08:08:56.006Z,100257.87
2019-02-23T08:13:00.915Z,100250.25
2019-02-23T08:17:05.835Z,100250.44
2019-02-23T08:21:10.761Z,100239.81
2019-02-23T08:25:16.047Z,100235.50
2019-02-23T08:29:20.958Z,100230.63
2019-02-23T08:33:25.869Z,100238.45
2019-02-23T08:37:30.782Z,100230.20
2019-02-23T08:41:35.689Z,100237.80
2019-02-23T08:45:40.609Z,100246.07
2019-02-23T08:49:46.380Z,100251.97
2019-02-23T08:53:51.283Z,100236.30
2019-02-23T08:57:56.185Z,100233.70
2019-02-23T09:02:01.098Z,100246.73
2019-02-23T09:06:06.010Z,100256.70
2019-02-23T09:10:14.899Z,100257.31
2019-02-23T09:14:19.803Z,100255.20
2019-02-23T09:18:24.726Z,100266.65
2019-02-23T09:22:29.634Z,100252.88
2019-02-23T09:26:34.548Z,100252.33
2019-02-23T09:30:40.444Z,100240.04
2019-02-23T09:34:45.349Z,100242.02
2019-02-23T09:38:50.268Z,100233.19
2019-02-23T09:42:55.178Z,100243.00
2019-02-23T09:47:00.097Z,100237.42
2019-02-23T09:51:05.008Z,100224.80
2019-02-23T09:55:09.977Z,100229.80
2019-02-23T09:59:14.897Z,100221.80
2019-02-23T10:03:19.829Z,100213.66
2019-02-23T10:07:24.751Z,100207.23
2019-02-23T10:11:29.668Z,100201.84
2019-02-23T10:15:34.570Z,100194.08
2019-02-23T10:19:39.490Z,100196.83
2019-02-23T10:23:44.398Z,100191.36
2019-02-23T10:27:49.350Z,100190.06
2019-02-23T10:31:54.260Z,100201.44
2019-02-23T10:35:59.155Z,100206.78
2019-02-23T10:40:05.605Z,100216.55
2019-02-23T10:44:10.518Z,100222.23
2019-02-23T10:48:15.438Z,100222.47
2019-02-23T10:52:20.350Z,100235.86
2019-02-23T10:56:25.261Z,100250.69
2019-02-23T11:00:30.536Z,100260.25
2019-02-23T11:04:35.448Z,100248.48
2019-02-23T11:08:40.358Z,100248.42
2019-02-23T11:12:45.266Z,100248.50
2019-02-23T11:16:50.237Z,100245.13
2019-02-23T11:20:55.151Z,100253.17
2019-02-23T11:25:00.102Z,100253.34
2019-02-23T11:29:05.189Z,100249.52
2019-02-23T11:33:10.102Z,100251.83
2019-02-23T11:37:15.000Z,100232.93
2019-02-23T11:41:19.988Z,100243.04
2019-02-23T11:45:24.918Z,100232.73
2019-02-23T11:49:29.827Z,100230.75
2019-02-23T11:53:34.732Z,100216.45
2019-02-23T11:57:40.715Z,100197.75
2019-02-23T12:01:45.621Z,100198.61
2019-02-23T12:05:50.533Z,100194.31
2019-02-23T12:09:55.433Z,100190.00
2019-02-23T12:14:00.340Z,100190.02
2019-02-23T12:18:05.268Z,100192.25
2019-02-23T12:22:12.626Z,100177.86
2019-02-23T12:26:16.843Z,100172.20
2019-02-23T12:30:21.692Z,100173.08
2019-02-23T12:34:26.604Z,100168.29
2019-02-23T12:38:31.527Z,100167.42
2019-02-23T12:42:36.417Z,100153.48
2019-02-23T12:46:41.335Z,100144.75
2019-02-23T12:50:47.226Z,100150.00
2019-02-23T12:54:52.139Z,100137.36
2019-02-23T12:58:57.051Z,100121.70
2019-02-23T13:03:01.953Z,100114.27
2019-02-23T13:07:06.879Z,100118.18
2019-02-23T13:11:11.791Z,100112.94
2019-02-23T13:15:20.046Z,100105.53
2019-02-23T13:19:45.866Z,100105.53
2019-02-23T13:23:59.798Z,100102.91
2019-02-23T13:28:13.491Z,100110.30
2019-02-23T13:32:45.805Z,100109.02
2019-02-23T13:37:01.769Z,100109.88
2019-02-23T13:41:18.505Z,100106.38
2019-02-23T13:45:41.418Z,100108.13
2019-02-23T13:50:20.968Z,100096.83
2019-02-23T13:54:46.769Z,100094.66
2019-02-23T13:58:54.740Z,100086.83
2019-02-23T14:03:36.752Z,100082.92
2019-02-23T14:08:00.795Z,100085.95
2019-02-23T14:12:18.638Z,100089.86
2019-02-23T14:16:41.707Z,100087.27
2019-02-23T14:20:58.389Z,100075.93
2019-02-23T14:25:24.591Z,100080.23
2019-02-23T14:29:35.248Z,100074.97
2019-02-23T14:33:52.106Z,100083.27
2019-02-23T14:38:02.742Z,100075.44
2019-02-23T14:42:10.701Z,100071.95
2019-02-23T14:46:24.320Z,100059.29
2019-02-23T14:50:38.093Z,100062.73
2019-02-23T14:55:00.699Z,100058.41
2019-02-23T14:59:07.488Z,100067.57
2019-02-23T15:03:19.252Z,100060.22
2019-02-23T15:07:48.091Z,100065.47
2019-02-23T15:11:58.617Z,100058.94
2019-02-23T15:16:24.440Z,100054.58
2019-02-23T15:20:56.461Z,100043.70
2019-02-23T15:25:19.567Z,100043.69
2019-02-23T15:29:39.742Z,100048.94
2019-02-23T15:33:59.564Z,100054.59
2019-02-23T15:38:26.405Z,100054.61
2019-02-23T15:42:46.467Z,100052.00
2019-02-23T15:47:09.192Z,100055.88
2019-02-23T15:51:14.218Z,100052.41
2019-02-23T15:55:26.130Z,100053.27
2019-02-23T15:59:26.018Z,100058.91
2019-02-23T16:03:30.917Z,100064.93
2019-02-23T16:07:35.817Z,100065.81
2019-02-23T16:11:40.749Z,100063.59
2019-02-23T16:15:45.629Z,100061.84
2019-02-23T16:19:50.532Z,100058.81
2019-02-23T16:23:55.457Z,100060.93
2019-02-23T16:28:00.333Z,100069.58
2019-02-23T16:32:05.232Z,100071.69
2019-02-23T16:36:10.143Z,100072.95
2019-02-23T16:40:15.103Z,100081.62
2019-02-23T16:44:19.956Z,100091.08
2019-02-23T16:48:24.851Z,100096.59
2019-02-23T16:52:29.757Z,100087.78
2019-02-23T16:56:34.658Z,100089.31
2019-02-23T17:00:39.558Z,100091.32
2019-02-23T17:04:54.021Z,100091.64
2019-02-23T17:08:51.213Z,100090.73
2019-02-23T17:12:56.058Z,100094.37
2019-02-23T17:17:00.965Z,100083.80
2019-02-23T17:21:05.871Z,100084.64
2019-02-23T17:25:10.782Z,100091.40
2019-02-23T17:29:15.675Z,100098.27
2019-02-23T17:33:20.590Z,100098.95
2019-02-23T17:37:25.583Z,100100.11
2019-02-23T17:41:30.470Z,100105.14
2019-02-23T17:45:35.385Z,100107.29
2019-02-23T17:49:40.279Z,100109.02
2019-02-23T17:53:45.360Z,100104.10
2019-02-23T17:57:50.257Z,100110.47
2019-02-23T18:01:55.173Z,100104.18
2019-02-23T18:06:00.118Z,100105.34
2019-02-23T18:10:06.449Z,100111.75
2019-02-23T18:14:11.457Z,100125.53
2019-02-23T18:18:16.373Z,100119.88
2019-02-23T18:22:21.290Z,100125.04
2019-02-23T18:26:26.188Z,100125.53
2019-02-23T18:30:31.105Z,100132.94
2019-02-23T18:34:36.014Z,100128.97
2019-02-23T18:38:40.913Z,100123.62
2019-02-23T18:42:45.820Z,100120.38
2019-02-23T18:46:50.729Z,100115.44
2019-02-23T18:50:55.636Z,100125.78
2019-02-23T18:55:00.544Z,100124.78
2019-02-23T18:59:05.455Z,100131.23
2019-02-23T19:03:10.361Z,100124.78
2019-02-23T19:07:15.274Z,100119.59
2019-02-23T19:11:20.751Z,100125.23
2019-02-23T19:15:25.659Z,100123.31
2019-02-23T19:19:30.564Z,100125.23
2019-02-23T19:23:35.466Z,100115.00
2019-02-23T19:27:40.365Z,100112.05
2019-02-23T19:31:45.270Z,100097.78
2019-02-23T19:35:50.176Z,100095.22
2019-02-23T19:39:55.077Z,100088.73
2019-02-23T19:43:59.988Z,100086.94
2019-02-23T19:48:04.878Z,100086.59
2019-02-23T19:52:09.786Z,100089.64
2019-02-23T19:56:14.766Z,100080.98
2019-02-23T20:00:19.757Z,100082.62
2019-02-23T20:04:24.663Z,100086.45
2019-02-23T20:08:29.569Z,100081.98
2019-02-23T20:12:34.487Z,100086.14
2019-02-23T20:16:39.398Z,100085.06
2019-02-23T20:20:44.308Z,100081.97
2019-02-23T20:24:49.219Z,100079.33
2019-02-23T20:28:54.109Z,100081.81
2019-02-23T20:32:59.009Z,100082.89
2019-02-23T20:37:03.930Z,100085.64
2019-02-23T20:41:08.832Z,100086.81
2019-02-23T20:45:13.740Z,100085.39
2019-02-23T20:49:18.634Z,100080.89
2019-02-23T20:53:23.621Z,100086.91
2019-02-23T20:57:28.524Z,100086.77
2019-02-23T21:01:35.835Z,100076.73
2019-02-23T21:05:40.731Z,100080.75
2019-02-23T21:09:45.624Z,100085.22
2019-02-23T21:13:51.754Z,100081.20
2019-02-23T21:17:56.577Z,100088.29
2019-02-23T21:22:01.473Z,100094.34
2019-02-23T21:26:06.621Z,100081.46
2019-02-23T21:30:12.490Z,100096.94
2019-02-23T21:34:17.484Z,100098.38
2019-02-23T21:38:22.383Z,100096.87
2019-02-23T21:42:27.291Z,100094.17
2019-02-23T21:46:32.210Z,100084.86
2019-02-23T21:50:37.102Z,100090.34
2019-02-23T21:54:42.003Z,100086.34
2019-02-23T21:58:46.908Z,100097.88
2019-02-23T22:02:51.805Z,100106.36
2019-02-23T22:06:56.715Z,100108.00
2019-02-23T22:11:01.654Z,100111.13
2019-02-23T22:15:07.680Z,100113.06
2019-02-23T22:19:12.583Z,100110.70
2019-02-23T22:23:17.503Z,100106.96
2019-02-23T22:27:30.925Z,100106.19
2019-02-23T22:31:29.025Z,100102.19
2019-02-23T22:35:33.916Z,100100.42
2019-02-23T22:39:38.831Z,100103.72
2019-02-23T22:43:43.737Z,100099.28
2019-02-23T22:47:48.647Z,100100.22
2019-02-23T22:51:53.566Z,100099.86
2019-02-23T22:55:58.465Z,100103.06
2019-02-23T23:00:03.663Z,100104.87
2019-02-23T23:04:10.153Z,100106.11
2019-02-23T23:08:15.074Z,100106.58
2019-02-23T23:12:19.978Z,100111.45
2019-02-23T23:16:24.881Z,100098.89
2019-02-23T23:20:29.785Z,100104.85
2019-02-23T23:24:34.690Z,100101.19
2019-02-23T23:28:39.607Z,100101.11
2019-02-23T23:32:44.513Z,100101.95
2019-02-23T23:36:49.420Z,100109.89
2019-02-23T23:40:54.328Z,100102.14
2019-02-23T23:44:59.235Z,100104.80
2019-02-23T23:49:04.143Z,100101.04
2019-02-23T23:53:09.055Z,100102.80
2019-02-23T23:57:13.952Z,100101.57
